Time;durP1;ratioP1;P1;durP2;ratioP2;P2;SDS_P1;SDS_P2;PMS_P1;PMS_P2;Temp;Humidity;BMP_temperature;BMP_pressure;BME280_temperature;BME280_humidity;BME280_pressure;Samples;Min_cycle;Max_cycle;Signal;HPM_P1;HPM_P2
2022/01/20 00:00:44;;;;;;;326.33;235.57;;;;;;;25.05;37.41;103002.19;5105868;28;20382;-43
2022/01/20 00:03:17;;;;;;;331.67;233.52;;;;;;;25.11;37.43;103005.06;5106084;28;20130;-43
2022/01/20 00:08:36;;;;;;;329.08;239.13;;;;;;;25.09;37.29;103008.47;5106367;28;20385;-43
2022/01/20 00:28:03;;;;;;;359.42;255.75;;;;;;;25.00;37.37;103012.50;5111889;27;20537;-43
2022/01/20 00:30:57;;;;;;;356.75;254.88;;;;;;;24.98;37.40;103013.28;5125815;27;20124;-43
2022/01/20 00:33:32;;;;;;;355.85;253.40;;;;;;;24.92;37.45;103000.78;5125888;27;20430;-43
2022/01/20 00:38:39;;;;;;;369.20;265.90;;;;;;;24.86;37.46;102995.28;5125829;27;20037;-43
2022/01/20 00:41:12;;;;;;;354.15;258.70;;;;;;;24.89;37.77;102995.41;5125884;27;20054;-42
2022/01/20 00:43:42;;;;;;;369.35;264.10;;;;;;;24.88;37.71;103002.41;5126173;27;20395;-42
2022/01/20 00:46:10;;;;;;;370.55;264.63;;;;;;;24.84;37.89;103012.69;5125503;27;20031;-42
2022/01/20 00:48:39;;;;;;;365.70;263.67;;;;;;;24.82;37.58;103010.03;5125221;27;20027;-43
2022/01/20 00:51:08;;;;;;;380.90;269.38;;;;;;;24.88;37.46;103012.00;5107503;27;20023;-43
2022/01/20 00:53:39;;;;;;;375.00;267.60;;;;;;;24.82;37.84;102996.88;5125116;27;20031;-43
2022/01/20 00:56:07;;;;;;;372.40;270.63;;;;;;;24.87;37.63;103010.19;5125596;27;20100;-43
2022/01/20 00:58:36;;;;;;;360.45;265.02;;;;;;;24.83;37.81;103013.53;5124925;27;20035;-43
2022/01/20 01:01:04;;;;;;;370.48;269.58;;;;;;;24.75;37.95;103000.09;5125448;27;20045;-43
2022/01/20 01:03:33;;;;;;;376.08;273.42;;;;;;;24.73;37.79;102994.78;5125789;27;20035;-43
2022/01/20 01:06:13;;;;;;;351.75;259.13;;;;;;;24.75;37.56;102986.94;5124795;27;20541;-43
2022/01/20 01:08:41;;;;;;;387.75;274.60;;;;;;;24.78;37.77;102983.59;5125234;27;20464;-43
2022/01/20 01:11:10;;;;;;;381.75;275.45;;;;;;;24.76;37.81;102985.25;5107456;27;20039;-44
2022/01/20 01:13:39;;;;;;;372.65;274.08;;;;;;;24.77;37.84;102992.28;5125273;27;20369;-42
2022/01/20 01:16:10;;;;;;;383.25;277.50;;;;;;;24.77;37.81;103001.03;5124938;27;20060;-43
2022/01/20 01:21:42;;;;;;;383.92;276.08;;;;;;;24.71;37.88;102996.44;5113903;27;20499;-43
2022/01/20 01:24:09;;;;;;;371.48;270.65;;;;;;;24.73;37.50;102993.91;5125157;27;20603;-43
2022/01/20 01:26:38;;;;;;;381.98;273.20;;;;;;;24.71;37.58;102992.94;5125367;27;20475;-42
2022/01/20 01:29:23;;;;;;;377.63;269.35;;;;;;;24.67;37.69;102991.84;5125489;27;20039;-43
2022/01/20 01:31:52;;;;;;;375.15;272.10;;;;;;;24.69;37.65;102989.31;5124830;27;20274;-43
2022/01/20 01:34:22;;;;;;;395.70;282.60;;;;;;;24.68;37.76;102995.38;5124570;27;20027;-43
2022/01/20 01:37:04;;;;;;;380.75;276.95;;;;;;;24.64;37.89;103003.94;5122911;27;20042;-43
2022/01/20 01:39:33;;;;;;;390.73;279.20;;;;;;;24.64;37.76;103007.50;5124216;27;20206;-43
2022/01/20 01:42:02;;;;;;;395.48;283.75;;;;;;;24.55;38.34;102997.50;5124716;27;20060;-44
2022/01/20 01:44:31;;;;;;;379.85;274.40;;;;;;;24.57;37.86;102998.44;5124417;27;20039;-45
2022/01/20 01:47:00;;;;;;;390.98;278.95;;;;;;;24.64;37.99;103012.75;5124226;27;20035;-43
2022/01/20 01:49:28;;;;;;;395.00;280.98;;;;;;;24.57;37.85;103001.06;5124719;27;20031;-43
2022/01/20 01:51:57;;;;;;;380.70;274.25;;;;;;;24.58;38.17;103012.47;5124876;27;20114;-43
2022/01/20 01:54:25;;;;;;;398.05;287.80;;;;;;;24.56;37.84;103012.41;5124434;27;20027;-43
2022/01/20 01:56:54;;;;;;;384.92;280.67;;;;;;;24.49;38.29;103018.22;5106233;27;20479;-44
2022/01/20 01:59:23;;;;;;;386.75;286.15;;;;;;;24.53;38.07;103019.22;5105902;27;20039;-43
2022/01/20 02:01:51;;;;;;;389.90;283.33;;;;;;;24.50;37.87;103021.72;5124106;27;20027;-43
2022/01/20 02:04:22;;;;;;;386.98;285.75;;;;;;;24.46;38.05;103027.69;5124169;27;20147;-43
2022/01/20 02:20:20;;;;;;;389.92;289.05;;;;;;;24.48;38.12;103026.03;5116370;27;20067;-44
2022/01/20 02:22:48;;;;;;;406.52;294.08;;;;;;;24.45;38.27;103021.53;5105652;28;20432;-44
2022/01/20 02:25:21;;;;;;;395.83;292.25;;;;;;;24.41;38.02;103033.63;5123870;27;20039;-43
2022/01/20 02:27:50;;;;;;;393.30;287.38;;;;;;;24.41;38.08;103033.63;5123952;27;20465;-44
2022/01/20 02:30:20;;;;;;;394.25;288.52;;;;;;;24.39;38.40;103031.78;5123612;27;20352;-43
2022/01/20 02:33:09;;;;;;;388.30;284.38;;;;;;;24.42;38.10;103035.41;5106310;28;20289;-43
2022/01/20 02:35:41;;;;;;;387.42;287.85;;;;;;;24.37;38.07;103026.44;5123591;28;20061;-44
2022/01/20 02:38:16;;;;;;;396.50;292.38;;;;;;;24.38;38.32;103032.59;5124383;28;20020;-43
2022/01/20 02:46:10;;;;;;;405.08;293.52;;;;;;;24.39;38.19;103039.66;5114357;28;20050;-44
2022/01/20 02:48:39;;;;;;;399.58;289.17;;;;;;;24.34;38.19;103025.41;5105508;28;20030;-43
2022/01/20 02:51:07;;;;;;;397.45;286.80;;;;;;;24.33;38.16;103029.75;5124588;27;20031;-43
2022/01/20 02:53:36;;;;;;;395.50;292.45;;;;;;;24.30;38.54;103028.72;5127588;27;20079;-43
2022/01/20 02:56:05;;;;;;;392.05;288.85;;;;;;;24.29;38.42;103027.84;5127607;27;20031;-43
2022/01/20 02:58:33;;;;;;;395.38;287.20;;;;;;;24.32;38.36;103029.69;5127610;27;20031;-46
2022/01/20 03:01:02;;;;;;;397.25;291.80;;;;;;;24.29;38.30;103048.81;5128083;27;20106;-42
2022/01/20 03:03:31;;;;;;;405.63;294.00;;;;;;;24.30;38.27;103058.50;5127871;27;20030;-42
2022/01/20 03:05:59;;;;;;;398.80;296.42;;;;;;;24.33;38.04;103048.09;5128038;27;20035;-45
2022/01/20 03:08:28;;;;;;;393.80;292.90;;;;;;;24.26;38.25;103049.56;5100750;27;20027;-43
2022/01/20 03:10:57;;;;;;;397.67;290.25;;;;;;;24.24;38.18;103048.59;5109149;27;20023;-44
2022/01/20 03:13:25;;;;;;;404.60;296.95;;;;;;;24.23;38.27;103061.66;5127292;27;20034;-43
2022/01/20 03:15:55;;;;;;;396.45;290.75;;;;;;;24.22;38.28;103068.63;5127073;27;20051;-43
2022/01/20 03:18:23;;;;;;;389.60;288.80;;;;;;;24.16;38.22;103051.72;5109410;27;20369;-44
2022/01/20 03:20:52;;;;;;;397.95;289.92;;;;;;;24.19;38.71;103055.38;5127561;27;20039;-43
2022/01/20 03:23:20;;;;;;;392.65;285.85;;;;;;;24.16;38.54;103055.25;5108937;27;20035;-43
2022/01/20 03:25:49;;;;;;;387.25;292.40;;;;;;;24.20;38.34;103058.88;5127231;27;20016;-43
2022/01/20 03:28:18;;;;;;;399.45;293.63;;;;;;;24.17;38.40;103051.78;5127324;27;20386;-42
2022/01/20 03:30:47;;;;;;;407.15;292.30;;;;;;;24.22;38.20;103045.03;5127303;27;20678;-43
2022/01/20 03:33:15;;;;;;;400.38;297.25;;;;;;;24.20;38.33;103048.41;5109077;27;20541;-44
2022/01/20 03:35:44;;;;;;;391.08;284.15;;;;;;;24.18;38.44;103056.22;5126504;27;20037;-42
2022/01/20 03:38:13;;;;;;;403.77;292.48;;;;;;;24.18;38.45;103052.66;5126919;27;20070;-47
2022/01/20 03:40:41;;;;;;;405.63;297.02;;;;;;;24.20;38.31;103054.56;5127172;27;20023;-43
2022/01/20 03:43:10;;;;;;;406.00;299.83;;;;;;;24.16;38.62;103064.84;5126989;27;20059;-43
2022/01/20 03:45:39;;;;;;;400.17;293.60;;;;;;;24.17;38.35;103066.59;5126834;27;20027;-43
2022/01/20 03:48:10;;;;;;;400.52;297.55;;;;;;;24.16;38.42;103059.59;5126585;27;20503;-42
2022/01/20 03:51:22;;;;;;;407.13;302.08;;;;;;;24.08;38.89;103054.88;5126509;27;20035;-43
2022/01/20 03:53:28;;;;;;;407.02;298.27;;;;;;;24.08;38.78;103070.63;5119065;27;20484;-42
2022/01/20 03:55:57;;;;;;;402.63;295.15;;;;;;;24.07;38.83;103079.31;5126375;27;20484;-43
2022/01/20 03:58:25;;;;;;;401.08;298.15;;;;;;;24.05;38.49;103065.22;5126469;27;20035;-50
2022/01/20 04:00:54;;;;;;;394.13;295.05;;;;;;;24.08;38.56;103073.25;5127245;27;20025;-44
2022/01/20 04:03:23;;;;;;;411.95;302.90;;;;;;;24.04;38.67;103079.16;5107041;27;20062;-42
2022/01/20 04:08:21;;;;;;;402.08;295.30;;;;;;;24.00;39.10;103092.06;5108414;27;20030;-43
2022/01/20 04:10:50;;;;;;;413.10;300.25;;;;;;;24.04;38.67;103091.41;5094245;27;20123;-43
2022/01/20 04:13:19;;;;;;;408.33;301.35;;;;;;;24.05;38.73;103088.81;5108352;27;20100;-42
2022/01/20 04:15:48;;;;;;;397.65;296.33;;;;;;;24.06;38.40;103085.38;5125811;27;20100;-43
2022/01/20 04:18:23;;;;;;;405.63;297.73;;;;;;;24.04;38.56;103084.41;5091161;27;20064;-44
2022/01/20 04:20:51;;;;;;;401.17;301.65;;;;;;;24.05;38.83;103075.72;5126877;27;20035;-43
2022/01/20 04:23:20;;;;;;;410.58;303.58;;;;;;;24.03;39.05;103077.38;5126041;27;20035;-43
2022/01/20 04:25:49;;;;;;;412.13;303.08;;;;;;;24.01;38.86;103078.13;5126119;27;20476;-43
2022/01/20 04:28:18;;;;;;;412.30;305.27;;;;;;;24.00;38.89;103082.47;5125939;27;20039;-43
2022/01/20 04:30:45;;;;;;;417.20;306.77;;;;;;;24.00;38.81;103094.69;5126243;27;20031;-44
2022/01/20 04:33:14;;;;;;;402.77;304.02;;;;;;;23.99;38.70;103090.28;5126342;27;20035;-43
2022/01/20 04:35:43;;;;;;;406.92;305.58;;;;;;;23.96;38.80;103093.63;5126025;27;20122;-43
2022/01/20 04:38:12;;;;;;;415.50;304.70;;;;;;;23.96;39.13;103096.25;5126067;27;20034;-45
2022/01/20 04:40:42;;;;;;;409.90;303.10;;;;;;;23.92;39.12;103089.06;5107679;27;20480;-42
2022/01/20 04:43:10;;;;;;;402.55;301.13;;;;;;;24.04;38.84;103088.78;5126337;27;20357;-43
2022/01/20 04:45:47;;;;;;;412.63;304.02;;;;;;;23.97;38.73;103098.09;5125846;27;20027;-43
2022/01/20 04:59:08;;;;;;;401.45;304.08;;;;;;;23.95;38.87;103100.56;5099725;27;20429;-43
2022/01/20 05:01:43;;;;;;;404.77;299.42;;;;;;;23.92;38.94;103110.91;5125137;27;20027;-42
2022/01/20 05:04:12;;;;;;;412.33;301.00;;;;;;;23.87;39.05;103104.56;5125185;27;20038;-43
2022/01/20 05:06:43;;;;;;;410.20;304.35;;;;;;;23.92;39.10;103108.28;5125810;27;20023;-44
2022/01/20 05:09:17;;;;;;;411.98;306.13;;;;;;;23.91;38.78;103108.22;5125248;27;20072;-43
2022/01/20 05:11:50;;;;;;;398.30;295.52;;;;;;;23.85;39.22;103107.94;5125660;27;20265;-43
2022/01/20 05:14:19;;;;;;;409.10;303.83;;;;;;;23.82;38.98;103107.00;5124978;27;20035;-42
2022/01/20 05:16:47;;;;;;;404.67;299.45;;;;;;;23.80;39.05;103100.78;5124874;27;20450;-43
2022/01/20 05:19:16;;;;;;;412.30;305.65;;;;;;;23.79;39.07;103114.69;5125208;27;20046;-43
2022/01/20 05:21:45;;;;;;;413.73;308.65;;;;;;;23.83;39.05;103119.22;5124840;27;20019;-43
2022/01/20 05:24:12;;;;;;;407.90;297.88;;;;;;;23.80;39.19;103113.88;5125141;27;20035;-44
2022/01/20 05:26:41;;;;;;;412.23;309.30;;;;;;;23.80;39.40;103118.19;5125348;27;20026;-44
2022/01/20 05:29:10;;;;;;;407.85;301.73;;;;;;;23.77;39.21;103115.44;5124623;27;20027;-43
2022/01/20 05:31:38;;;;;;;411.48;303.23;;;;;;;23.77;39.35;103132.06;5124947;27;20034;-44
2022/01/20 05:34:07;;;;;;;412.17;304.05;;;;;;;23.82;39.27;103135.81;5125038;27;20407;-43
2022/01/20 05:36:35;;;;;;;408.80;302.17;;;;;;;23.81;39.06;103133.09;5124753;27;20092;-43
2022/01/20 05:39:06;;;;;;;418.13;307.65;;;;;;;23.78;39.04;103131.25;5124668;27;20059;-43
2022/01/20 05:41:35;;;;;;;410.73;306.00;;;;;;;23.80;39.17;103129.59;5124486;27;20681;-43
2022/01/20 05:44:04;;;;;;;413.80;304.58;;;;;;;23.78;39.16;103136.47;5124401;27;20054;-43
2022/01/20 05:46:41;;;;;;;409.40;305.60;;;;;;;23.73;39.36;103134.47;5124320;27;20562;-43
2022/01/20 05:49:10;;;;;;;409.52;305.58;;;;;;;23.77;39.47;103136.38;5107774;27;20030;-41
2022/01/20 05:51:42;;;;;;;404.52;299.67;;;;;;;23.77;38.90;103146.88;5124868;27;20027;-44
2022/01/20 05:54:11;;;;;;;406.90;305.25;;;;;;;23.68;39.25;103134.22;5124357;27;20400;-42
2022/01/20 05:56:40;;;;;;;410.08;304.80;;;;;;;23.73;39.27;103144.94;5124051;27;20039;-41
2022/01/20 05:59:08;;;;;;;419.92;309.35;;;;;;;23.73;39.41;103143.22;5123958;27;20491;-41
2022/01/20 06:01:38;;;;;;;419.52;307.10;;;;;;;23.72;39.13;103141.41;5106184;27;20087;-42
2022/01/20 06:04:09;;;;;;;421.95;308.08;;;;;;;23.66;39.08;103138.53;5124168;27;20132;-42
2022/01/20 06:06:38;;;;;;;416.00;303.77;;;;;;;23.71;39.12;103143.97;5123750;27;20035;-41
2022/01/20 06:09:08;;;;;;;412.42;305.02;;;;;;;23.66;39.41;103147.25;5124067;27;20027;-42
2022/01/20 06:11:36;;;;;;;400.23;303.27;;;;;;;23.67;39.19;103151.69;5124334;27;20375;-42
2022/01/20 06:14:05;;;;;;;401.45;297.80;;;;;;;23.67;39.07;103156.94;5124387;27;20027;-42
2022/01/20 06:16:35;;;;;;;400.52;300.67;;;;;;;23.72;39.00;103157.13;5123644;27;20043;-42
2022/01/20 06:19:04;;;;;;;416.70;309.13;;;;;;;23.67;39.23;103153.38;5123911;27;20059;-42
2022/01/20 06:21:32;;;;;;;417.98;304.52;;;;;;;23.66;39.29;103154.25;5124167;27;20035;-42
2022/01/20 06:24:01;;;;;;;409.05;303.80;;;;;;;23.65;39.21;103165.53;5094214;27;20023;-43
2022/01/20 06:26:30;;;;;;;412.08;302.75;;;;;;;23.65;39.19;103173.41;5123742;27;20042;-41
2022/01/20 06:28:59;;;;;;;411.35;306.48;;;;;;;23.60;39.55;103174.88;5123846;27;20349;-42
2022/01/20 06:31:27;;;;;;;418.42;308.05;;;;;;;23.66;39.08;103183.06;5123683;27;20028;-42
2022/01/20 06:33:56;;;;;;;407.02;304.70;;;;;;;23.67;39.44;103188.38;5123839;27;20075;-43
2022/01/20 06:36:25;;;;;;;410.50;305.20;;;;;;;23.64;39.09;103188.22;5104273;28;20091;-42
2022/01/20 06:38:54;;;;;;;411.30;303.67;;;;;;;23.69;38.84;103187.56;5123619;28;20057;-42
2022/01/20 06:41:22;;;;;;;406.90;300.75;;;;;;;23.71;39.12;103178.94;5124122;28;20031;-42
2022/01/20 06:43:51;;;;;;;405.40;301.73;;;;;;;23.74;38.90;103186.06;5123918;28;20038;-41
2022/01/20 06:46:20;;;;;;;419.23;305.20;;;;;;;23.70;38.83;103187.63;5123998;28;20449;-42
2022/01/20 06:48:48;;;;;;;414.73;306.95;;;;;;;23.69;39.11;103190.16;5123891;28;20087;-42
2022/01/20 06:51:18;;;;;;;406.38;303.42;;;;;;;23.70;39.37;103190.22;5123729;28;20023;-42
2022/01/20 06:53:47;;;;;;;413.63;302.50;;;;;;;23.73;39.06;103195.63;5105069;28;20047;-41
2022/01/20 06:56:15;;;;;;;417.08;306.70;;;;;;;23.76;39.06;103203.66;5123429;28;20027;-41
2022/01/20 06:58:44;;;;;;;409.77;298.30;;;;;;;23.80;38.85;103203.00;5124848;28;20443;-42
2022/01/20 07:01:13;;;;;;;404.23;299.88;;;;;;;23.73;39.37;103208.72;5123556;28;20039;-41
2022/01/20 07:03:41;;;;;;;419.15;307.25;;;;;;;23.69;38.98;103206.78;5123981;28;20149;-42
2022/01/20 07:06:09;;;;;;;406.50;293.25;;;;;;;23.77;38.79;103220.25;5123440;28;20480;-42
2022/01/20 07:08:38;;;;;;;402.48;292.00;;;;;;;23.78;39.02;103222.06;5123153;28;20273;-42
2022/01/20 07:11:06;;;;;;;420.48;303.83;;;;;;;23.81;38.99;103227.47;5123634;28;20081;-42
2022/01/20 07:13:35;;;;;;;421.42;304.30;;;;;;;23.79;38.71;103232.63;5123850;28;20425;-42
2022/01/20 07:16:04;;;;;;;401.33;299.58;;;;;;;23.79;39.00;103235.25;5123352;28;20134;-42
2022/01/20 07:18:32;;;;;;;418.45;301.98;;;;;;;23.74;38.94;103244.59;5123316;28;20372;-42
2022/01/20 07:21:01;;;;;;;398.55;290.00;;;;;;;23.73;39.12;103248.03;5123606;28;20031;-42
2022/01/20 07:23:29;;;;;;;414.80;303.00;;;;;;;23.80;39.08;103241.38;5123920;28;20130;-42
2022/01/20 07:25:57;;;;;;;410.33;297.27;;;;;;;23.81;39.27;103243.19;5105499;28;20031;-42
2022/01/20 07:28:26;;;;;;;411.38;302.13;;;;;;;23.79;39.02;103240.50;5123586;28;20027;-43
2022/01/20 07:30:54;;;;;;;413.65;305.08;;;;;;;23.62;39.08;103221.28;5123696;28;20027;-42
2022/01/20 07:33:22;;;;;;;416.48;302.88;;;;;;;23.74;39.26;103247.22;5123623;28;20067;-43
2022/01/20 07:35:51;;;;;;;415.65;308.38;;;;;;;23.76;39.36;103244.66;5123735;28;20033;-42
2022/01/20 07:38:19;;;;;;;422.17;307.95;;;;;;;23.78;38.91;103238.69;5125861;27;20106;-42
2022/01/20 07:40:47;;;;;;;411.38;304.38;;;;;;;23.65;39.05;103229.31;5127155;27;20626;-43
2022/01/20 07:43:15;;;;;;;420.30;307.35;;;;;;;23.78;39.16;103236.09;5127335;27;20034;-44
2022/01/20 07:45:44;;;;;;;411.10;299.70;;;;;;;23.73;39.22;103237.56;5126988;27;20157;-46
2022/01/20 07:48:11;;;;;;;417.20;303.15;;;;;;;23.71;39.12;103225.22;5126768;27;20654;-42
2022/01/20 07:50:40;;;;;;;412.27;295.92;;;;;;;23.73;39.11;103247.16;5127157;27;20388;-41
2022/01/20 07:53:08;;;;;;;408.67;296.70;;;;;;;23.75;38.93;103242.88;5127232;27;20482;-43
2022/01/20 07:55:38;;;;;;;413.48;297.17;;;;;;;23.67;39.24;103242.47;5108413;27;20031;-42
2022/01/20 07:58:08;;;;;;;399.42;291.02;;;;;;;23.69;39.08;103242.59;5126599;27;20027;-43
2022/01/20 08:00:37;;;;;;;409.25;299.60;;;;;;;23.73;39.23;103248.03;5126678;27;20392;-42
2022/01/20 08:03:05;;;;;;;416.42;294.58;;;;;;;23.79;39.23;103258.84;5126431;27;20569;-42
2022/01/20 08:05:34;;;;;;;397.95;290.50;;;;;;;23.82;39.13;103258.09;5127012;27;20611;-41
2022/01/20 08:08:03;;;;;;;414.52;300.92;;;;;;;23.79;39.20;103252.69;5126754;27;20027;-43
2022/01/20 08:10:31;;;;;;;412.73;299.25;;;;;;;23.75;39.09;103258.59;5126948;27;20031;-42
2022/01/20 08:13:00;;;;;;;410.45;301.80;;;;;;;23.70;39.12;103258.38;5126905;27;20436;-43
2022/01/20 08:15:29;;;;;;;421.50;304.15;;;;;;;23.69;39.16;103251.31;5126282;27;20031;-42
2022/01/20 08:17:57;;;;;;;404.13;294.60;;;;;;;23.73;39.46;103253.28;5107697;27;20047;-42
2022/01/20 08:20:25;;;;;;;403.40;293.83;;;;;;;23.73;39.25;103255.91;5126429;27;20284;-42
2022/01/20 08:22:54;;;;;;;410.63;296.30;;;;;;;23.78;39.34;103262.28;5126757;27;20039;-42
2022/01/20 08:25:23;;;;;;;404.92;289.92;;;;;;;23.77;39.24;103254.31;5126233;27;20096;-42
2022/01/20 08:27:52;;;;;;;400.65;295.73;;;;;;;23.80;39.29;103254.50;5091589;27;20953;-42
2022/01/20 08:30:23;;;;;;;410.55;302.58;;;;;;;23.85;39.16;103275.69;5126469;27;20019;-42
2022/01/20 08:32:52;;;;;;;401.80;294.17;;;;;;;23.91;39.14;103270.75;5126108;27;20034;-42
2022/01/20 08:35:23;;;;;;;415.65;300.98;;;;;;;23.87;39.04;103274.03;5125792;27;20504;-42
2022/01/20 08:37:52;;;;;;;408.90;294.48;;;;;;;23.81;39.11;103272.94;5126176;27;20075;-42
2022/01/20 08:40:22;;;;;;;414.27;298.48;;;;;;;23.80;39.21;103278.06;5126043;27;20022;-42
2022/01/20 08:42:52;;;;;;;421.23;300.88;;;;;;;23.79;39.24;103282.44;5097704;27;20382;-43
2022/01/20 08:45:25;;;;;;;421.80;302.35;;;;;;;23.79;39.05;103281.53;5125994;27;20122;-43
2022/01/20 08:47:55;;;;;;;408.58;302.15;;;;;;;23.80;39.21;103283.31;5126018;27;20485;-42
2022/01/20 08:50:27;;;;;;;406.67;302.58;;;;;;;23.80;39.36;103279.00;5124843;27;20473;-44
2022/01/20 08:52:56;;;;;;;411.65;301.38;;;;;;;23.80;39.56;103285.94;5125128;27;20031;-42
2022/01/20 08:55:26;;;;;;;416.73;299.13;;;;;;;23.77;39.33;103286.69;5125460;27;20504;-42
2022/01/20 08:57:56;;;;;;;415.17;304.27;;;;;;;23.78;39.29;103278.00;5125111;27;20027;-44
2022/01/20 09:00:28;;;;;;;414.75;301.15;;;;;;;23.74;39.06;103268.19;5125298;27;20079;-43
2022/01/20 09:02:57;;;;;;;422.20;301.02;;;;;;;23.81;39.65;103277.25;5125355;27;20058;-43
2022/01/20 09:05:26;;;;;;;416.85;298.30;;;;;;;23.88;39.22;103278.47;5106182;27;20444;-44
2022/01/20 09:07:55;;;;;;;422.73;305.30;;;;;;;23.92;39.35;103285.66;5124721;27;20455;-42
2022/01/20 09:10:23;;;;;;;409.65;298.20;;;;;;;23.91;39.36;103289.09;5125025;27;20117;-42
2022/01/20 09:15:42;;;;;;;404.15;297.25;;;;;;;23.96;39.49;103293.78;5116917;27;20057;-42
2022/01/20 09:18:10;;;;;;;408.17;294.67;;;;;;;23.95;39.54;103294.56;5106713;27;20095;-42
2022/01/20 09:20:40;;;;;;;407.67;293.75;;;;;;;24.05;39.01;103300.31;5125421;27;20094;-43
2022/01/20 09:23:09;;;;;;;405.27;288.65;;;;;;;24.13;38.95;103301.59;5107006;27;20442;-45
2022/01/20 09:25:40;;;;;;;402.63;292.90;;;;;;;24.10;39.13;103314.53;5124993;27;20031;-43
2022/01/20 09:28:09;;;;;;;405.35;291.52;;;;;;;24.10;38.91;103314.53;5125278;27;20022;-42
2022/01/20 09:30:40;;;;;;;409.77;287.55;;;;;;;24.03;39.51;103318.59;5124612;27;20084;-42
2022/01/20 09:35:38;;;;;;;400.92;281.02;;;;;;;24.07;39.33;103317.03;5124438;27;20404;-42
2022/01/20 09:38:08;;;;;;;394.90;277.33;;;;;;;24.09;39.45;103307.50;5124670;27;20614;-42
2022/01/20 09:40:39;;;;;;;395.48;283.70;;;;;;;24.12;39.18;103319.06;5124683;27;20039;-44
2022/01/20 09:43:10;;;;;;;397.77;286.05;;;;;;;24.13;39.34;103322.56;5123974;27;20523;-42
2022/01/20 09:45:40;;;;;;;397.45;279.77;;;;;;;24.15;39.48;103320.03;5125020;27;20042;-42
2022/01/20 09:48:10;;;;;;;400.85;281.80;;;;;;;24.15;39.25;103320.03;5106050;27;20460;-44
2022/01/20 09:50:39;;;;;;;395.02;278.33;;;;;;;24.20;39.13;103321.16;5124414;27;20035;-42
2022/01/20 09:53:08;;;;;;;398.42;282.55;;;;;;;24.24;39.13;103329.22;5124894;27;20023;-42
2022/01/20 09:55:37;;;;;;;400.50;283.20;;;;;;;24.25;39.44;103335.41;5123804;27;20023;-42
2022/01/20 09:58:07;;;;;;;403.35;285.50;;;;;;;24.23;39.08;103334.41;5124603;27;20035;-42
2022/01/20 10:00:37;;;;;;;406.63;287.85;;;;;;;24.32;39.49;103349.72;5123405;27;20502;-43
2022/01/20 10:03:10;;;;;;;397.60;282.38;;;;;;;24.27;39.49;103345.13;5106018;27;20499;-43
2022/01/20 10:05:41;;;;;;;403.60;288.80;;;;;;;24.30;39.47;103344.41;5124754;27;20030;-42
2022/01/20 10:08:14;;;;;;;412.45;298.13;;;;;;;24.28;39.39;103335.56;5124983;27;20023;-43
2022/01/20 10:10:48;;;;;;;411.67;292.67;;;;;;;24.27;39.29;103337.25;5124384;27;20029;-43
2022/01/20 10:13:19;;;;;;;411.75;292.73;;;;;;;24.23;39.51;103331.78;5123989;27;20027;-43
2022/01/20 10:16:08;;;;;;;412.23;297.55;;;;;;;24.34;39.58;103334.94;5124028;27;20422;-42
2022/01/20 10:18:57;;;;;;;409.85;290.15;;;;;;;24.22;39.35;103325.66;5124338;27;20458;-43
2022/01/20 10:21:32;;;;;;;387.48;274.00;;;;;;;24.21;39.10;103322.94;5124196;27;20037;-42
2022/01/20 10:24:10;;;;;;;;;;;;;;;24.35;39.05;103315.75;5106566;27;20499;-43
2022/01/20 10:26:38;;;;;;;378.60;265.38;;;;;;;24.44;38.64;103318.81;5099066;27;19937;-43
2022/01/20 10:29:09;;;;;;;378.83;265.60;;;;;;;24.33;39.04;103312.16;5123990;27;20467;-43
2022/01/20 10:31:39;;;;;;;377.15;260.48;;;;;;;24.33;38.94;103323.53;5123935;27;20027;-41
2022/01/20 10:34:30;;;;;;;377.67;264.70;;;;;;;24.26;38.88;103331.94;5123926;27;20027;-42
2022/01/20 10:37:04;;;;;;;381.95;267.42;;;;;;;24.27;39.26;103342.50;5118426;28;20551;-42
2022/01/20 10:39:38;;;;;;;388.33;263.83;;;;;;;24.30;38.99;103339.16;5123759;28;20027;-44
2022/01/20 10:42:08;;;;;;;380.58;269.35;;;;;;;24.31;39.01;103346.19;5123832;28;20027;-43
2022/01/20 10:44:50;;;;;;;386.27;273.50;;;;;;;24.29;38.99;103350.47;5123660;28;20046;-42
2022/01/20 10:47:22;;;;;;;394.75;277.30;;;;;;;24.33;38.83;103344.53;5123786;28;20247;-43
2022/01/20 10:49:51;;;;;;;389.73;274.90;;;;;;;24.30;39.25;103339.16;5123744;28;20119;-43
2022/01/20 10:52:22;;;;;;;397.75;287.02;;;;;;;24.37;39.30;103343.88;5124078;28;20047;-43
2022/01/20 10:54:54;;;;;;;405.58;289.45;;;;;;;24.41;38.97;103342.28;5124079;28;20039;-43
2022/01/20 10:57:30;;;;;;;410.25;292.60;;;;;;;24.37;39.45;103338.63;5124117;28;20495;-44
2022/01/20 11:00:03;;;;;;;422.95;299.83;;;;;;;24.40;39.13;103348.38;5123852;28;20114;-42
2022/01/20 11:02:32;;;;;;;414.08;298.45;;;;;;;24.47;39.09;103347.84;5123825;28;20552;-42
2022/01/20 11:05:01;;;;;;;415.27;295.92;;;;;;;24.45;38.99;103351.22;5124198;28;20066;-45
2022/01/20 11:07:30;;;;;;;423.15;298.98;;;;;;;24.48;39.18;103354.00;5123027;28;20031;-42
2022/01/20 11:10:09;;;;;;;418.10;303.83;;;;;;;24.43;39.07;103345.88;5122876;28;20039;-42
2022/01/20 11:12:39;;;;;;;418.13;298.70;;;;;;;24.40;39.28;103345.75;5125048;27;20035;-42
2022/01/20 11:15:10;;;;;;;421.25;305.33;;;;;;;24.47;39.04;103347.84;5127480;27;20112;-42
2022/01/20 11:17:41;;;;;;;421.55;305.27;;;;;;;24.47;39.20;103352.19;5127031;27;20111;-42
2022/01/20 11:20:13;;;;;;;417.45;300.48;;;;;;;24.42;39.16;103339.75;5109537;27;20084;-42
2022/01/20 11:22:52;;;;;;;427.63;303.65;;;;;;;24.43;39.17;103343.25;5127886;27;20444;-46
2022/01/20 11:25:24;;;;;;;425.38;306.88;;;;;;;24.45;39.10;103346.84;5109041;27;20035;-43
2022/01/20 11:28:13;;;;;;;422.80;309.35;;;;;;;24.51;39.36;103354.13;5127344;27;20130;-43
2022/01/20 11:30:56;;;;;;;417.42;300.33;;;;;;;24.53;39.21;103352.47;5117385;27;20114;-43
2022/01/20 11:33:35;;;;;;;418.13;296.05;;;;;;;24.52;38.86;103348.06;5127152;27;20042;-42
2022/01/20 11:36:06;;;;;;;414.92;294.10;;;;;;;24.63;38.58;103353.81;5126227;27;20027;-43
2022/01/20 11:38:48;;;;;;;416.63;299.02;;;;;;;24.56;38.74;103356.19;5097756;27;20023;-43
2022/01/20 11:41:21;;;;;;;418.08;301.58;;;;;;;24.63;38.71;103351.19;5109824;27;20035;-42
2022/01/20 11:43:52;;;;;;;422.85;304.77;;;;;;;24.57;38.88;103349.19;5127043;27;20114;-43
2022/01/20 11:46:28;;;;;;;432.23;308.38;;;;;;;24.58;38.76;103348.38;5127059;27;20235;-47
2022/01/20 11:48:58;;;;;;;432.55;312.98;;;;;;;24.59;39.12;103355.41;5127160;27;20091;-44
2022/01/20 11:51:30;;;;;;;425.45;309.20;;;;;;;24.57;38.99;103317.69;5127197;27;20034;-43
2022/01/20 11:54:05;;;;;;;430.92;306.02;;;;;;;24.71;38.67;103349.88;5127547;27;20114;-42
2022/01/20 11:56:37;;;;;;;419.05;306.95;;;;;;;24.69;38.92;103344.50;5126286;27;20074;-46
2022/01/20 11:59:07;;;;;;;429.45;311.17;;;;;;;24.55;38.96;103333.38;5127200;27;20030;-44
2022/01/20 12:01:55;;;;;;;417.70;309.40;;;;;;;24.55;38.97;103341.25;5127010;27;20038;-44
2022/01/20 12:04:43;;;;;;;427.75;316.83;;;;;;;24.58;38.88;103346.63;5127122;27;20495;-45
2022/01/20 12:07:11;;;;;;;429.95;312.40;;;;;;;24.52;39.25;103342.81;5126564;27;20038;-43
2022/01/20 12:09:41;;;;;;;423.55;301.40;;;;;;;24.48;39.18;103344.38;5108301;27;20084;-42
2022/01/20 12:12:23;;;;;;;417.75;302.25;;;;;;;24.55;39.22;103340.34;5126054;27;20448;-42